Gainesville Regional Airport
KGNV : now visible

Airfield :











YOU CAN JOIN US ON...

 
LOGIN :

Register | Disclaimer

   EN    FR    IT 

 









Legend :    VFR   Marginal VFR   IFR   Intensive IFR   Very Intensive IFR
Visi :
Ceiling :
>= 8 km
>= 3000ft
5 to 8 km
1000 to 3000 ft
1500m to 5 km
500 to 1000 ft
800 to 1500m
200 to 500 ft
< 800m
< 200 ft
Symbols :   Thunderstorms  Fog  Heavy snow  Heavy precipitations  Wind > 20 kt






- Airport Elevation : 152 ft
- IATA code : GNV


KGNV - Gainesville Regional

CURRENT METAR :
  • 230753Z AUTO 00000KT 10SM CLR 23/23 A3008 RMK AO2 SLP184 T02280228

EXPIRED METARs :
  • 230653Z AUTO 00000KT 10SM CLR 23/23 A3009 RMK AO2 SLP185 T02280228
  • 230553Z AUTO 00000KT 10SM CLR 23/23 A3009 RMK AO2 SLP187 60000 T02280228 10250 20228 50000
  • 230453Z AUTO 25003KT 10SM CLR 23/23 A3009 RMK AO2 RAE0358 SLP186 P0000 T02330233 403330222
  • 230353Z AUTO 00000KT 10SM -RA CLR 24/24 A3009 RMK AO2 RAB51 SLP188 P0000 T02390239

TAF KGNV
Valid from the 23 at 06:00 until the 24 at 06:00 UTC


230520Z 2306/2406 VRB04KT P6SM SCT100 BKN200
TEMPO 2309/2312 4SM BR
FM231400 17004KT P6SM SCT025 SCT250
FM231900 14008KT P6SM VCTS SCT060CB SCT250
PROB30 2320/2324 P6SM TS BKN050CB
KZJX FIR / North America



MET'MAP, your aeronautical weather chart ! - Copyright ORBIFLY December 2007 - Disclaimer

ORBIFLY MET'MAP TEAM :

Programming & Development : Alexandra Zaïnal
Original concept : Baudouin d'Aumeries
Technical & hardware support : Manuel Goepfert
Assistance : Marc-Olivier Méhu




SOURCES & CREDITS :

   NOAA       Earth
Advisory